createdAt,value
2023-05-25T00:01:54.781Z,55.85
2023-05-25T00:04:27.166Z,55.61
2023-05-25T00:06:55.645Z,55.52
2023-05-25T00:09:23.800Z,55.65
2023-05-25T00:11:53.542Z,55.84
2023-05-25T00:14:21.661Z,55.78
2023-05-25T00:16:51.193Z,55.63
2023-05-25T00:19:19.679Z,55.55
2023-05-25T00:21:48.731Z,55.50
2023-05-25T00:24:16.944Z,55.39
2023-05-25T00:26:44.999Z,55.42
2023-05-25T00:29:16.125Z,55.37
2023-05-25T00:31:44.240Z,55.42
2023-05-25T00:34:12.361Z,55.38
2023-05-25T00:36:40.435Z,55.37
2023-05-25T00:39:08.572Z,55.26
2023-05-25T00:41:41.468Z,55.13
2023-05-25T00:44:09.872Z,55.16
2023-05-25T00:46:39.705Z,55.10
2023-05-25T00:49:07.863Z,55.20
2023-05-25T00:51:37.064Z,55.21
2023-05-25T00:54:05.264Z,55.26
2023-05-25T00:56:36.680Z,55.17
2023-05-25T00:59:06.935Z,55.16
2023-05-25T01:01:40.123Z,55.14
2023-05-25T01:04:13.402Z,55.04
2023-05-25T01:06:45.086Z,54.97
2023-05-25T01:09:17.222Z,55.17
2023-05-25T01:11:48.335Z,55.22
2023-05-25T01:14:20.960Z,54.94
2023-05-25T01:16:49.888Z,55.13
2023-05-25T01:19:19.553Z,55.13
2023-05-25T01:21:54.551Z,54.94
2023-05-25T01:24:30.871Z,55.25
2023-05-25T01:27:05.040Z,55.10
2023-05-25T01:29:35.750Z,55.26
2023-05-25T01:32:05.827Z,55.23
2023-05-25T01:34:36.940Z,55.21
2023-05-25T01:37:07.084Z,55.08
2023-05-25T01:39:37.633Z,55.27
2023-05-25T01:42:06.010Z,55.22
2023-05-25T01:44:35.911Z,55.13
2023-05-25T01:47:09.221Z,55.08
2023-05-25T01:49:43.615Z,54.97
2023-05-25T01:52:20.831Z,54.62
2023-05-25T01:54:54.076Z,54.94
2023-05-25T01:57:22.743Z,55.23
2023-05-25T01:59:53.659Z,55.29
2023-05-25T02:02:22.057Z,55.33
2023-05-25T02:04:50.843Z,55.38
2023-05-25T02:07:20.482Z,55.34
2023-05-25T02:09:48.594Z,55.47
2023-05-25T02:12:16.675Z,55.46
2023-05-25T02:14:46.063Z,55.52
2023-05-25T02:17:17.910Z,55.46
2023-05-25T02:19:46.685Z,55.53
2023-05-25T02:22:14.743Z,55.52
2023-05-25T02:24:44.244Z,55.41
2023-05-25T02:27:12.938Z,55.46
2023-05-25T02:29:41.324Z,55.42
2023-05-25T02:32:09.509Z,55.57
2023-05-25T02:34:37.576Z,55.60
2023-05-25T02:37:06.089Z,55.53
2023-05-25T02:39:34.158Z,55.52
2023-05-25T02:42:03.677Z,55.39
2023-05-25T02:44:32.467Z,55.46
2023-05-25T02:47:00.607Z,55.44
2023-05-25T02:49:29.974Z,55.49
2023-05-25T02:51:58.080Z,55.55
2023-05-25T02:54:26.133Z,55.55
2023-05-25T02:56:54.298Z,55.53
2023-05-25T02:59:24.967Z,55.60
2023-05-25T03:01:52.994Z,55.78
2023-05-25T03:04:21.994Z,55.89
2023-05-25T03:06:50.056Z,55.95
2023-05-25T03:09:20.285Z,56.00
2023-05-25T03:11:50.798Z,55.97
2023-05-25T03:14:22.915Z,55.92
2023-05-25T03:16:58.606Z,55.97
2023-05-25T03:19:28.031Z,55.93
2023-05-25T03:21:56.057Z,55.96
2023-05-25T03:24:24.152Z,55.97
2023-05-25T03:26:52.235Z,56.10
2023-05-25T03:29:20.469Z,56.17
2023-05-25T03:31:49.966Z,56.38
2023-05-25T03:34:19.749Z,56.62
2023-05-25T03:36:47.800Z,56.77
2023-05-25T03:39:18.116Z,56.95
2023-05-25T03:41:46.495Z,57.00
2023-05-25T03:44:15.176Z,57.02
2023-05-25T03:46:44.546Z,57.11
2023-05-25T03:49:15.786Z,57.15
2023-05-25T03:51:44.361Z,57.61
2023-05-25T03:54:13.930Z,57.82
2023-05-25T03:56:42.320Z,58.05
2023-05-25T03:59:10.386Z,58.07
2023-05-25T04:01:40.074Z,58.13
2023-05-25T04:04:08.280Z,58.14
2023-05-25T04:06:40.127Z,58.36
2023-05-25T04:09:08.811Z,58.51
2023-05-25T04:11:36.895Z,58.58
2023-05-25T04:14:05.041Z,58.83
2023-05-25T04:16:36.754Z,58.91
2023-05-25T04:19:05.491Z,59.04
2023-05-25T04:21:33.886Z,59.03
2023-05-25T04:24:03.618Z,58.88
2023-05-25T04:26:31.826Z,59.31
2023-05-25T04:29:02.448Z,59.23
2023-05-25T04:31:56.971Z,59.06
2023-05-25T04:34:50.683Z,59.29
2023-05-25T04:37:23.284Z,59.19
2023-05-25T04:39:52.832Z,59.24
2023-05-25T04:42:24.032Z,59.25
2023-05-25T04:44:55.723Z,59.38
2023-05-25T04:47:25.109Z,59.35
2023-05-25T04:49:54.008Z,59.52
2023-05-25T04:52:22.044Z,59.60
2023-05-25T04:54:50.109Z,59.66
2023-05-25T04:57:19.570Z,59.61
2023-05-25T04:59:48.409Z,59.72
2023-05-25T05:02:16.918Z,59.78
2023-05-25T05:04:44.964Z,59.80
2023-05-25T05:07:13.629Z,59.88
2023-05-25T05:09:41.811Z,59.93
2023-05-25T05:12:12.076Z,60.00
2023-05-25T05:14:46.976Z,60.02
2023-05-25T05:17:15.355Z,60.09
2023-05-25T05:19:43.533Z,60.06
2023-05-25T05:22:13.303Z,60.05
2023-05-25T05:24:41.444Z,60.08
2023-05-25T05:27:10.743Z,60.20
2023-05-25T05:29:46.103Z,60.20
2023-05-25T05:32:14.284Z,60.28
2023-05-25T05:34:42.404Z,60.19
2023-05-25T05:37:21.626Z,60.18
2023-05-25T05:39:49.729Z,60.10
2023-05-25T05:42:17.790Z,60.08
2023-05-25T05:44:47.236Z,59.93
2023-05-25T05:47:15.356Z,59.79
2023-05-25T05:49:43.451Z,59.69
2023-05-25T05:52:11.503Z,59.70
2023-05-25T05:54:39.758Z,59.59
2023-05-25T05:57:11.917Z,59.44
2023-05-25T05:59:40.038Z,58.82
2023-05-25T06:02:10.213Z,58.41
2023-05-25T06:04:38.658Z,58.05
2023-05-25T06:07:07.059Z,57.77
2023-05-25T06:09:36.295Z,57.30
2023-05-25T06:12:06.213Z,56.78
2023-05-25T06:14:35.094Z,56.29
2023-05-25T06:17:05.167Z,56.19
2023-05-25T06:19:34.657Z,55.69
2023-05-25T06:22:02.724Z,54.83
2023-05-25T06:24:31.495Z,54.52
2023-05-25T06:26:59.618Z,52.23
2023-05-25T06:29:27.740Z,52.65
2023-05-25T06:31:55.917Z,52.22
2023-05-25T06:34:25.571Z,51.01
2023-05-25T06:36:55.042Z,50.57
2023-05-25T06:39:23.571Z,50.35
2023-05-25T06:41:52.156Z,50.02
2023-05-25T06:44:29.439Z,48.86
2023-05-25T06:46:57.503Z,48.41
2023-05-25T06:49:26.121Z,47.44
2023-05-25T06:51:55.950Z,47.20
2023-05-25T06:54:24.077Z,45.70
2023-05-25T06:56:52.659Z,46.15
2023-05-25T06:59:20.688Z,46.19
2023-05-25T07:01:48.849Z,45.13
2023-05-25T07:04:16.988Z,45.19
2023-05-25T07:06:45.097Z,45.38
2023-05-25T07:09:14.830Z,45.48
2023-05-25T07:11:42.878Z,45.35
2023-05-25T07:14:10.900Z,43.84
2023-05-25T07:16:39.105Z,42.58
2023-05-25T07:19:07.241Z,41.24
2023-05-25T07:21:36.640Z,39.18
2023-05-25T07:24:05.306Z,39.22
2023-05-25T07:26:36.414Z,39.68
2023-05-25T07:29:04.618Z,38.98
2023-05-25T07:31:32.748Z,37.75
2023-05-25T07:34:01.217Z,36.98
2023-05-25T07:36:29.621Z,37.24
2023-05-25T07:38:58.961Z,37.12
2023-05-25T07:41:27.469Z,36.31
2023-05-25T07:43:57.165Z,36.40
2023-05-25T07:46:26.015Z,36.71
2023-05-25T07:48:55.154Z,37.45
2023-05-25T07:51:26.460Z,37.02
2023-05-25T07:53:55.453Z,37.53
2023-05-25T07:56:23.886Z,38.09
2023-05-25T07:58:52.342Z,38.79
2023-05-25T08:01:24.505Z,38.11
2023-05-25T08:03:54.768Z,38.40
2023-05-25T08:06:23.405Z,37.87
2023-05-25T08:08:52.064Z,37.63
2023-05-25T08:11:24.897Z,37.21
2023-05-25T08:13:53.545Z,38.04
2023-05-25T08:16:23.308Z,37.58
2023-05-25T08:18:51.648Z,37.50
2023-05-25T08:21:20.113Z,37.32
2023-05-25T08:23:50.739Z,38.03
2023-05-25T08:26:37.786Z,37.05
2023-05-25T08:29:07.768Z,36.69
2023-05-25T08:31:37.590Z,35.93
2023-05-25T08:34:06.000Z,36.05
2023-05-25T08:36:36.298Z,35.66
2023-05-25T08:39:06.384Z,35.08
2023-05-25T08:41:36.074Z,35.46
2023-05-25T08:44:08.081Z,36.17
2023-05-25T08:46:38.047Z,34.88
2023-05-25T08:49:10.081Z,35.37
2023-05-25T08:51:40.176Z,35.92
2023-05-25T08:54:11.343Z,36.66
2023-05-25T08:56:46.180Z,35.79
2023-05-25T08:59:23.306Z,36.25
2023-05-25T09:01:57.400Z,35.90
2023-05-25T09:04:26.771Z,35.69
2023-05-25T09:07:08.847Z,33.96
2023-05-25T09:09:39.927Z,34.21
2023-05-25T09:12:09.715Z,34.43
2023-05-25T09:14:39.925Z,34.50
2023-05-25T09:17:09.828Z,34.92
2023-05-25T09:19:38.214Z,34.69
2023-05-25T09:22:14.848Z,35.12
2023-05-25T09:24:45.330Z,34.63
2023-05-25T09:27:18.537Z,34.37
2023-05-25T09:29:48.981Z,33.41
2023-05-25T09:32:20.075Z,34.12
2023-05-25T09:34:48.896Z,34.32
2023-05-25T09:37:19.742Z,33.63
2023-05-25T09:39:49.103Z,33.45
2023-05-25T09:42:18.206Z,33.70
2023-05-25T09:44:46.624Z,34.04
2023-05-25T09:47:17.000Z,34.88
2023-05-25T09:49:49.492Z,35.42
2023-05-25T09:52:18.163Z,35.23
2023-05-25T09:54:47.344Z,35.50
2023-05-25T09:57:16.921Z,35.63
2023-05-25T09:59:46.117Z,33.99
2023-05-25T10:02:15.331Z,34.45
2023-05-25T10:04:43.939Z,33.36
2023-05-25T10:07:16.253Z,34.03
2023-05-25T10:09:47.286Z,32.47
2023-05-25T10:12:20.347Z,32.25
2023-05-25T10:14:52.118Z,31.25
2023-05-25T10:17:24.570Z,31.96
2023-05-25T10:19:56.755Z,31.28
2023-05-25T10:22:33.059Z,31.44
2023-05-25T10:25:09.418Z,32.57
2023-05-25T10:27:42.006Z,31.38
2023-05-25T10:30:11.564Z,32.15
2023-05-25T10:32:40.448Z,31.47
2023-05-25T10:35:11.399Z,32.85
2023-05-25T10:37:41.629Z,32.05
2023-05-25T10:40:11.023Z,32.09
2023-05-25T10:42:39.990Z,30.90
2023-05-25T10:45:10.539Z,32.23
2023-05-25T10:47:42.144Z,33.34
2023-05-25T10:50:21.298Z,33.24
2023-05-25T10:53:01.513Z,32.32
2023-05-25T10:55:32.732Z,32.47
2023-05-25T10:58:12.161Z,32.89
2023-05-25T11:00:41.776Z,32.53
2023-05-25T11:03:11.054Z,32.39
2023-05-25T11:05:40.933Z,31.16
2023-05-25T11:08:12.615Z,31.11
2023-05-25T11:10:56.767Z,31.06
2023-05-25T11:13:37.928Z,31.02
2023-05-25T11:16:18.745Z,32.03
2023-05-25T11:18:51.675Z,30.38
2023-05-25T11:21:42.602Z,30.89
2023-05-25T11:24:17.727Z,31.11
2023-05-25T11:27:01.070Z,30.17
2023-05-25T11:29:33.184Z,29.48
2023-05-25T11:32:02.906Z,28.79
2023-05-25T11:34:33.342Z,29.86
2023-05-25T11:37:05.270Z,29.92
2023-05-25T11:39:35.074Z,29.65
2023-05-25T11:42:07.938Z,29.58
2023-05-25T11:44:39.133Z,29.61
2023-05-25T11:47:09.993Z,29.78
2023-05-25T11:49:41.908Z,31.52
2023-05-25T11:52:11.190Z,29.61
2023-05-25T11:54:42.111Z,27.36
2023-05-25T11:57:16.179Z,25.66
2023-05-25T11:59:51.080Z,25.68
2023-05-25T12:02:20.755Z,25.75
2023-05-25T12:04:56.341Z,25.39
2023-05-25T12:07:26.322Z,24.35
2023-05-25T12:10:06.249Z,24.96
2023-05-25T12:12:41.174Z,23.93
2023-05-25T12:15:11.909Z,25.14
2023-05-25T12:17:43.164Z,26.42
2023-05-25T12:20:13.338Z,26.52
2023-05-25T12:22:42.390Z,28.16
2023-05-25T12:25:13.489Z,26.30
2023-05-25T12:27:41.863Z,26.01
2023-05-25T12:30:11.305Z,24.65
2023-05-25T12:33:02.403Z,23.87
2023-05-25T12:35:45.403Z,23.65
2023-05-25T12:38:14.527Z,23.69
2023-05-25T12:40:44.990Z,24.24
2023-05-25T12:43:14.383Z,25.04
2023-05-25T12:45:43.965Z,24.25
2023-05-25T12:48:12.890Z,25.91
2023-05-25T12:50:58.284Z,25.85
2023-05-25T12:53:27.398Z,25.02
2023-05-25T12:56:03.858Z,25.29
2023-05-25T12:58:32.278Z,25.39
2023-05-25T13:01:00.863Z,24.22
2023-05-25T13:03:29.242Z,25.26
2023-05-25T13:06:02.730Z,25.62
2023-05-25T13:08:31.233Z,25.48
2023-05-25T13:11:00.313Z,27.43
2023-05-25T13:13:30.030Z,25.65
2023-05-25T13:15:58.690Z,25.85
2023-05-25T13:18:27.235Z,25.97
2023-05-25T13:20:57.083Z,26.77
2023-05-25T13:23:26.348Z,26.87
2023-05-25T13:25:54.678Z,25.10
2023-05-25T13:28:23.064Z,25.95
2023-05-25T13:30:52.765Z,25.85
2023-05-25T13:33:24.120Z,26.35
2023-05-25T13:35:59.804Z,27.14
2023-05-25T13:38:29.671Z,25.66
2023-05-25T13:40:58.060Z,26.24
2023-05-25T13:43:26.188Z,27.04
2023-05-25T13:45:55.792Z,27.16
2023-05-25T13:48:24.114Z,25.08
2023-05-25T13:50:52.221Z,25.19
2023-05-25T13:53:20.345Z,25.74
2023-05-25T13:55:48.786Z,26.52
2023-05-25T13:58:16.828Z,25.86
2023-05-25T14:00:45.077Z,26.08
2023-05-25T14:03:14.812Z,25.78
2023-05-25T14:05:43.171Z,26.10
2023-05-25T14:08:12.753Z,27.45
2023-05-25T14:10:43.481Z,25.86
2023-05-25T14:13:14.024Z,25.47
2023-05-25T14:15:42.285Z,27.15
2023-05-25T14:18:10.576Z,25.70
2023-05-25T14:20:41.155Z,25.29
2023-05-25T14:23:10.904Z,25.30
2023-05-25T14:25:41.361Z,25.49
2023-05-25T14:28:09.416Z,25.99
2023-05-25T14:30:37.559Z,27.32
2023-05-25T14:33:05.668Z,25.99
2023-05-25T14:35:33.767Z,26.34
2023-05-25T14:38:03.235Z,26.25
2023-05-25T14:40:31.398Z,26.82
2023-05-25T14:42:59.500Z,27.40
2023-05-25T14:45:27.527Z,26.65
2023-05-25T14:48:11.765Z,27.20
2023-05-25T14:50:44.480Z,26.92
2023-05-25T14:53:14.161Z,27.08
2023-05-25T14:55:42.351Z,27.58
2023-05-25T14:58:11.127Z,26.33
2023-05-25T15:00:39.148Z,26.37
2023-05-25T15:03:07.389Z,26.47
2023-05-25T15:05:35.526Z,25.90
2023-05-25T15:08:03.657Z,26.88
2023-05-25T15:10:33.194Z,26.77
2023-05-25T15:13:01.281Z,27.83
2023-05-25T15:15:29.333Z,27.71
2023-05-25T15:17:57.659Z,27.07
2023-05-25T15:20:25.834Z,26.57
2023-05-25T15:22:54.009Z,27.36
2023-05-25T15:25:34.967Z,26.78
2023-05-25T15:28:05.518Z,28.15
2023-05-25T15:30:34.428Z,27.23
2023-05-25T15:33:02.814Z,27.36
2023-05-25T15:35:32.438Z,27.68
2023-05-25T15:38:01.170Z,27.60
2023-05-25T15:40:29.588Z,28.08
2023-05-25T15:42:57.783Z,27.82
2023-05-25T15:45:27.390Z,27.84
2023-05-25T15:47:55.654Z,28.17
2023-05-25T15:50:23.921Z,28.18
2023-05-25T15:52:51.957Z,28.50
2023-05-25T15:55:20.699Z,28.63
2023-05-25T15:57:48.823Z,28.93
2023-05-25T16:00:17.926Z,28.58
2023-05-25T16:02:47.421Z,28.58
2023-05-25T16:05:15.625Z,29.01
2023-05-25T16:07:43.639Z,29.55
2023-05-25T16:10:11.800Z,29.21
2023-05-25T16:12:41.111Z,29.83
2023-05-25T16:15:10.717Z,30.00
2023-05-25T16:17:38.772Z,29.19
2023-05-25T16:20:10.349Z,30.32
2023-05-25T16:22:38.432Z,30.11
2023-05-25T16:25:07.185Z,29.71
2023-05-25T16:27:35.274Z,29.77
2023-05-25T16:30:03.414Z,30.24
2023-05-25T16:32:32.773Z,30.09
2023-05-25T16:35:01.605Z,30.49
2023-05-25T16:37:31.186Z,31.19
2023-05-25T16:39:59.274Z,30.62
2023-05-25T16:42:27.302Z,31.22
2023-05-25T16:44:55.396Z,30.48
2023-05-25T16:47:23.760Z,30.99
2023-05-25T16:49:51.807Z,31.59
2023-05-25T16:52:19.815Z,31.43
2023-05-25T16:54:49.253Z,31.14
2023-05-25T16:57:17.272Z,31.15
2023-05-25T16:59:45.658Z,31.22
2023-05-25T17:02:13.722Z,31.64
2023-05-25T17:04:41.786Z,31.56
2023-05-25T17:07:10.000Z,32.19
2023-05-25T17:09:38.033Z,32.15
2023-05-25T17:12:08.502Z,32.79
2023-05-25T17:14:36.611Z,32.79
2023-05-25T17:17:04.728Z,32.93
2023-05-25T17:19:32.835Z,32.87
2023-05-25T17:22:00.898Z,33.18
2023-05-25T17:24:28.995Z,34.05
2023-05-25T17:26:57.127Z,33.70
2023-05-25T17:29:26.515Z,33.76
2023-05-25T17:31:54.894Z,34.31
2023-05-25T17:34:22.997Z,33.99
2023-05-25T17:36:51.062Z,34.31
2023-05-25T17:39:19.129Z,34.73
2023-05-25T17:41:47.702Z,34.41
2023-05-25T17:44:15.960Z,34.29
2023-05-25T17:46:45.832Z,34.16
2023-05-25T17:49:14.185Z,34.63
2023-05-25T17:51:42.563Z,35.02
2023-05-25T17:54:15.277Z,35.35
2023-05-25T17:56:43.367Z,35.99
2023-05-25T17:59:11.497Z,36.24
2023-05-25T18:01:40.750Z,36.52
2023-05-25T18:04:10.510Z,36.82
2023-05-25T18:06:38.677Z,37.27
2023-05-25T18:09:06.716Z,37.81
2023-05-25T18:11:36.584Z,38.08
2023-05-25T18:14:05.060Z,38.32
2023-05-25T18:16:33.258Z,38.61
2023-05-25T18:19:01.331Z,38.86
2023-05-25T18:21:30.730Z,38.93
2023-05-25T18:23:59.153Z,39.08
2023-05-25T18:26:27.710Z,39.33
2023-05-25T18:28:55.918Z,39.56
2023-05-25T18:31:24.957Z,39.73
2023-05-25T18:33:53.096Z,39.86
2023-05-25T18:36:21.143Z,40.09
2023-05-25T18:38:50.561Z,40.23
2023-05-25T18:41:21.179Z,40.29
2023-05-25T18:43:49.632Z,40.62
2023-05-25T18:46:17.896Z,40.72
2023-05-25T18:48:46.278Z,40.92
2023-05-25T18:51:15.489Z,41.20
2023-05-25T18:53:44.722Z,41.27
2023-05-25T18:56:14.088Z,41.40
2023-05-25T18:58:42.149Z,41.64
2023-05-25T19:01:10.196Z,41.66
2023-05-25T19:03:38.418Z,41.65
2023-05-25T19:06:07.106Z,41.66
2023-05-25T19:08:35.166Z,41.73
2023-05-25T19:11:03.210Z,41.73
2023-05-25T19:13:32.613Z,42.00
2023-05-25T19:16:01.139Z,42.04
2023-05-25T19:18:29.456Z,42.03
2023-05-25T19:20:58.422Z,42.09
2023-05-25T19:23:26.778Z,42.28
2023-05-25T19:25:54.863Z,42.52
2023-05-25T19:28:22.941Z,42.61
2023-05-25T19:30:52.420Z,42.73
2023-05-25T19:33:20.503Z,42.81
2023-05-25T19:35:48.608Z,42.99
2023-05-25T19:38:16.844Z,42.97
2023-05-25T19:40:45.221Z,42.91
2023-05-25T19:43:13.348Z,42.88
2023-05-25T19:45:41.512Z,43.06
2023-05-25T19:48:10.981Z,43.35
2023-05-25T19:50:39.056Z,43.49
2023-05-25T19:53:07.096Z,43.63
2023-05-25T19:55:36.787Z,43.77
2023-05-25T19:58:04.977Z,43.93
2023-05-25T20:00:33.358Z,44.09
2023-05-25T20:03:01.485Z,44.29
2023-05-25T20:05:31.134Z,44.27
2023-05-25T20:07:59.169Z,44.35
2023-05-25T20:10:27.192Z,44.48
2023-05-25T20:12:55.244Z,44.51
2023-05-25T20:15:23.323Z,44.72
2023-05-25T20:17:51.410Z,44.74
2023-05-25T20:20:19.544Z,44.88
2023-05-25T20:22:49.080Z,45.09
2023-05-25T20:25:17.188Z,45.25
2023-05-25T20:27:45.249Z,45.22
2023-05-25T20:30:14.955Z,45.19
2023-05-25T20:32:43.802Z,45.15
2023-05-25T20:35:11.884Z,45.34
2023-05-25T20:37:40.016Z,45.37
2023-05-25T20:40:10.154Z,45.44
2023-05-25T20:42:38.218Z,45.67
2023-05-25T20:45:07.182Z,45.88
2023-05-25T20:47:35.274Z,46.25
2023-05-25T20:50:03.482Z,46.28
2023-05-25T20:52:33.725Z,46.54
2023-05-25T20:55:01.865Z,46.48
2023-05-25T20:57:31.234Z,46.51
2023-05-25T21:00:00.170Z,46.56
2023-05-25T21:02:28.866Z,46.67
2023-05-25T21:04:57.029Z,46.70
2023-05-25T21:07:25.123Z,46.80
2023-05-25T21:09:53.164Z,46.83
2023-05-25T21:12:21.670Z,46.99
2023-05-25T21:14:51.171Z,47.12
2023-05-25T21:17:19.953Z,47.31
2023-05-25T21:19:48.967Z,47.45
2023-05-25T21:22:17.118Z,47.44
2023-05-25T21:24:45.509Z,47.66
2023-05-25T21:27:13.561Z,47.89
2023-05-25T21:29:41.601Z,48.19
2023-05-25T21:32:11.455Z,48.12
2023-05-25T21:34:39.541Z,48.12
2023-05-25T21:37:07.763Z,48.25
2023-05-25T21:39:35.900Z,48.33
2023-05-25T21:42:03.945Z,48.37
2023-05-25T21:44:31.976Z,48.49
2023-05-25T21:47:00.044Z,48.73
2023-05-25T21:49:29.561Z,48.97
2023-05-25T21:51:57.611Z,49.03
2023-05-25T21:54:25.695Z,48.92
2023-05-25T21:56:53.726Z,49.08
2023-05-25T21:59:21.834Z,49.00
2023-05-25T22:01:49.925Z,49.08
2023-05-25T22:04:17.996Z,49.27
2023-05-25T22:06:47.407Z,49.37
2023-05-25T22:09:15.625Z,49.46
2023-05-25T22:11:43.659Z,49.57
2023-05-25T22:14:12.075Z,49.53
2023-05-25T22:16:40.149Z,49.76
2023-05-25T22:19:08.360Z,49.80
2023-05-25T22:21:37.330Z,49.81
2023-05-25T22:24:07.091Z,49.82
2023-05-25T22:26:35.171Z,50.01
2023-05-25T22:29:03.247Z,50.14
2023-05-25T22:31:31.410Z,50.26
2023-05-25T22:33:59.446Z,50.43
2023-05-25T22:36:27.528Z,50.42
2023-05-25T22:38:55.566Z,50.40
2023-05-25T22:41:27.882Z,50.30
2023-05-25T22:43:55.952Z,50.30
2023-05-25T22:46:24.358Z,50.51
2023-05-25T22:48:52.688Z,50.56
2023-05-25T22:51:20.731Z,50.51
2023-05-25T22:53:48.774Z,50.55
2023-05-25T22:56:16.977Z,50.80
2023-05-25T22:58:46.385Z,50.98
2023-05-25T23:01:14.533Z,51.05
2023-05-25T23:03:42.673Z,51.22
2023-05-25T23:06:10.789Z,51.22
2023-05-25T23:08:39.445Z,51.45
2023-05-25T23:11:07.505Z,51.56
2023-05-25T23:13:35.844Z,51.59
2023-05-25T23:16:05.524Z,51.41
2023-05-25T23:18:33.658Z,51.40
2023-05-25T23:21:01.877Z,51.33
2023-05-25T23:23:29.925Z,51.31
2023-05-25T23:25:58.024Z,51.21
2023-05-25T23:28:26.136Z,51.42
2023-05-25T23:30:54.292Z,51.31
2023-05-25T23:33:23.713Z,51.33
2023-05-25T23:35:51.755Z,51.32
2023-05-25T23:38:19.831Z,51.35
2023-05-25T23:40:47.888Z,51.50
2023-05-25T23:43:16.420Z,51.53
2023-05-25T23:45:44.824Z,51.51
2023-05-25T23:48:13.216Z,51.61
2023-05-25T23:50:42.796Z,51.62
2023-05-25T23:53:10.874Z,51.62
2023-05-25T23:55:38.900Z,51.75
2023-05-25T23:58:08.130Z,51.88
